createdAt,value
2017-10-15T00:00:32.006Z,14.30
2017-10-15T00:03:06.461Z,14.20
2017-10-15T00:05:40.965Z,14.20
2017-10-15T00:08:15.710Z,14.30
2017-10-15T00:10:50.302Z,14.20
2017-10-15T00:13:24.797Z,14.20
2017-10-15T00:15:59.374Z,14.20
2017-10-15T00:18:33.998Z,14.20
2017-10-15T00:21:08.706Z,14.20
2017-10-15T00:23:43.190Z,14.20
2017-10-15T00:26:17.635Z,14.20
2017-10-15T00:28:52.094Z,14.20
2017-10-15T00:31:26.862Z,14.20
2017-10-15T00:34:01.567Z,14.20
2017-10-15T00:36:36.134Z,14.20
2017-10-15T00:39:10.673Z,14.10
2017-10-15T00:41:45.198Z,14.10
2017-10-15T00:44:20.550Z,14.10
2017-10-15T00:46:55.113Z,14.00
2017-10-15T00:49:29.626Z,14.10
2017-10-15T00:52:04.142Z,14.10
2017-10-15T00:54:38.699Z,14.00
2017-10-15T00:57:13.390Z,14.00
2017-10-15T00:59:47.363Z,13.90
2017-10-15T01:02:21.831Z,13.90
2017-10-15T01:04:56.534Z,13.90
2017-10-15T01:07:31.136Z,13.90
2017-10-15T01:10:13.859Z,13.90
2017-10-15T01:12:48.503Z,13.80
2017-10-15T01:15:23.033Z,13.80
2017-10-15T01:17:57.642Z,13.80
2017-10-15T01:20:31.478Z,13.80
2017-10-15T01:23:05.251Z,13.80
2017-10-15T01:25:38.992Z,13.80
2017-10-15T01:28:13.516Z,13.70
2017-10-15T01:30:48.068Z,13.60
2017-10-15T01:33:21.919Z,13.60
2017-10-15T01:35:57.154Z,13.40
2017-10-15T01:38:31.010Z,13.30
2017-10-15T01:41:04.991Z,13.40
2017-10-15T01:43:38.792Z,13.40
2017-10-15T01:46:12.521Z,13.40
2017-10-15T01:48:46.253Z,13.30
2017-10-15T01:51:20.043Z,13.30
2017-10-15T01:53:53.926Z,13.30
2017-10-15T01:56:27.730Z,13.30
2017-10-15T01:59:01.884Z,13.20
2017-10-15T02:01:36.421Z,13.20
2017-10-15T02:04:11.068Z,13.20
2017-10-15T02:06:45.600Z,13.20
2017-10-15T02:09:20.246Z,13.30
2017-10-15T02:11:54.880Z,13.30
2017-10-15T02:14:29.431Z,13.40
2017-10-15T02:17:03.970Z,13.40
2017-10-15T02:19:38.718Z,13.50
2017-10-15T02:22:13.175Z,13.40
2017-10-15T02:24:47.850Z,13.40
2017-10-15T02:27:22.406Z,13.40
2017-10-15T02:29:57.057Z,13.50
2017-10-15T02:32:32.364Z,13.50
2017-10-15T02:35:15.065Z,13.40
2017-10-15T02:37:49.950Z,13.50
2017-10-15T02:40:24.445Z,13.40
2017-10-15T02:42:59.506Z,13.40
2017-10-15T02:45:33.871Z,13.30
2017-10-15T02:48:09.435Z,13.30
2017-10-15T02:50:44.079Z,13.30
2017-10-15T02:53:18.826Z,13.30
2017-10-15T02:55:53.477Z,13.20
2017-10-15T02:58:27.943Z,13.20
2017-10-15T03:01:02.518Z,13.20
2017-10-15T03:03:37.198Z,13.20
2017-10-15T03:06:11.622Z,13.20
2017-10-15T03:08:45.926Z,13.20
2017-10-15T03:11:20.554Z,13.20
2017-10-15T03:13:55.239Z,13.20
2017-10-15T03:16:29.571Z,13.10
2017-10-15T03:19:04.267Z,13.10
2017-10-15T03:21:38.759Z,13.10
2017-10-15T03:24:13.385Z,13.10
2017-10-15T03:26:47.993Z,13.10
2017-10-15T03:29:22.409Z,13.10
2017-10-15T03:31:57.046Z,13.10
2017-10-15T03:34:31.691Z,13.10
2017-10-15T03:37:05.990Z,13.10
2017-10-15T03:39:40.562Z,13.10
2017-10-15T03:42:14.920Z,13.10
2017-10-15T03:44:49.409Z,13.10
2017-10-15T03:47:23.920Z,13.00
2017-10-15T03:49:58.338Z,13.00
2017-10-15T03:52:33.645Z,13.00
2017-10-15T03:55:10.267Z,12.90
2017-10-15T03:57:44.915Z,13.00
2017-10-15T04:00:19.544Z,12.90
2017-10-15T04:02:54.820Z,12.90
2017-10-15T04:05:29.308Z,12.80
2017-10-15T04:08:03.844Z,12.90
2017-10-15T04:10:38.398Z,12.80
2017-10-15T04:13:12.897Z,12.80
2017-10-15T04:15:47.530Z,12.80
2017-10-15T04:18:21.974Z,12.80
2017-10-15T04:20:56.364Z,12.80
2017-10-15T04:23:30.981Z,12.80
2017-10-15T04:26:05.538Z,12.80
2017-10-15T04:28:40.025Z,12.80
2017-10-15T04:31:14.554Z,12.80
2017-10-15T04:33:49.074Z,12.70
2017-10-15T04:36:23.572Z,12.70
2017-10-15T04:38:58.106Z,12.70
2017-10-15T04:41:32.474Z,12.70
2017-10-15T04:44:07.030Z,12.70
2017-10-15T04:46:41.625Z,12.70
2017-10-15T04:49:16.182Z,12.70
2017-10-15T04:51:50.735Z,12.70
2017-10-15T04:54:26.214Z,12.60
2017-10-15T04:57:00.802Z,12.60
2017-10-15T04:59:35.234Z,12.60
2017-10-15T05:02:09.956Z,12.60
2017-10-15T05:04:44.607Z,12.60
2017-10-15T05:07:19.159Z,12.70
2017-10-15T05:09:53.706Z,12.70
2017-10-15T05:12:28.186Z,12.70
2017-10-15T05:15:03.511Z,12.70
2017-10-15T05:17:45.386Z,12.70
2017-10-15T05:20:19.950Z,12.70
2017-10-15T05:22:54.386Z,12.70
2017-10-15T05:25:28.875Z,12.70
2017-10-15T05:28:03.550Z,12.70
2017-10-15T05:30:38.056Z,12.70
2017-10-15T05:33:12.603Z,12.70
2017-10-15T05:35:47.157Z,12.60
2017-10-15T05:38:21.742Z,12.70
2017-10-15T05:40:56.266Z,12.70
2017-10-15T05:43:30.874Z,12.70
2017-10-15T05:46:05.475Z,12.70
2017-10-15T05:48:40.124Z,12.70
2017-10-15T05:51:14.687Z,12.70
2017-10-15T05:53:49.027Z,12.80
2017-10-15T05:56:23.598Z,12.80
2017-10-15T05:58:58.214Z,12.80
2017-10-15T06:01:32.746Z,12.90
2017-10-15T06:04:06.992Z,12.90
2017-10-15T06:06:41.070Z,12.90
2017-10-15T06:09:15.532Z,13.00
2017-10-15T06:11:49.882Z,13.20
2017-10-15T06:14:24.575Z,13.30
2017-10-15T06:16:59.875Z,13.70
2017-10-15T06:19:34.483Z,13.60
2017-10-15T06:22:09.884Z,14.10
2017-10-15T06:24:44.087Z,14.10
2017-10-15T06:27:18.554Z,14.30
2017-10-15T06:29:52.651Z,14.60
2017-10-15T06:32:27.111Z,14.80
2017-10-15T06:35:01.659Z,15.10
2017-10-15T06:37:36.307Z,15.40
2017-10-15T06:40:15.263Z,15.80
2017-10-15T06:42:49.739Z,16.00
2017-10-15T06:45:24.309Z,16.30
2017-10-15T06:47:58.980Z,16.50
2017-10-15T06:50:33.522Z,16.70
2017-10-15T06:53:08.055Z,17.00
2017-10-15T06:55:42.562Z,17.30
2017-10-15T06:58:17.124Z,17.70
2017-10-15T07:00:51.723Z,18.00
2017-10-15T07:03:26.388Z,18.30
2017-10-15T07:06:00.950Z,18.60
2017-10-15T07:08:35.379Z,18.90
2017-10-15T07:11:09.902Z,19.10
2017-10-15T07:13:44.607Z,19.40
2017-10-15T07:16:19.135Z,19.70
2017-10-15T07:18:53.573Z,20.00
2017-10-15T07:21:28.123Z,20.50
2017-10-15T07:24:03.306Z,22.70
2017-10-15T07:26:37.814Z,22.50
2017-10-15T07:29:12.282Z,25.00
2017-10-15T07:31:46.759Z,27.40
2017-10-15T07:34:21.394Z,29.70
2017-10-15T07:36:55.958Z,31.70
2017-10-15T07:39:30.464Z,34.10
2017-10-15T07:42:04.972Z,36.40
2017-10-15T07:44:39.630Z,38.60
2017-10-15T07:47:13.938Z,40.50
2017-10-15T07:49:48.366Z,42.00
2017-10-15T07:52:22.890Z,43.50
2017-10-15T07:54:57.310Z,45.00
2017-10-15T07:57:31.651Z,46.30
2017-10-15T08:00:08.303Z,47.30
2017-10-15T08:02:43.058Z,48.30
2017-10-15T08:05:17.612Z,49.40
2017-10-15T08:07:52.063Z,49.90
2017-10-15T08:10:26.567Z,50.20
2017-10-15T08:13:01.199Z,50.80
2017-10-15T08:15:35.815Z,51.20
2017-10-15T08:18:10.438Z,51.70
2017-10-15T08:20:45.012Z,52.50
2017-10-15T08:23:19.428Z,53.20
2017-10-15T08:25:54.055Z,53.80
2017-10-15T08:28:29.523Z,54.60
2017-10-15T08:31:04.086Z,54.50
2017-10-15T08:33:38.551Z,55.30
2017-10-15T08:36:13.035Z,55.70
2017-10-15T08:38:47.539Z,56.10
2017-10-15T08:41:22.138Z,56.30
2017-10-15T08:43:56.747Z,57.00
2017-10-15T08:46:31.415Z,57.40
2017-10-15T08:49:06.058Z,57.70
2017-10-15T08:51:40.405Z,57.90
2017-10-15T08:54:14.663Z,58.00
2017-10-15T08:56:49.208Z,58.30
2017-10-15T08:59:23.711Z,58.40
2017-10-15T09:01:58.210Z,58.60
2017-10-15T09:04:32.291Z,58.70
2017-10-15T09:07:06.931Z,58.90
2017-10-15T09:09:42.159Z,59.50
2017-10-15T09:12:17.179Z,59.40
2017-10-15T09:14:51.821Z,59.50
2017-10-15T09:17:26.374Z,59.80
2017-10-15T09:20:01.556Z,59.90
2017-10-15T09:22:36.671Z,59.80
2017-10-15T09:25:15.182Z,59.80
2017-10-15T09:27:49.758Z,60.50
2017-10-15T09:30:24.687Z,60.50
2017-10-15T09:32:59.667Z,60.50
2017-10-15T09:35:34.502Z,60.70
2017-10-15T09:38:09.677Z,61.20
2017-10-15T09:40:44.719Z,61.70
2017-10-15T09:43:20.080Z,61.80
2017-10-15T09:45:55.525Z,61.80
2017-10-15T09:48:30.715Z,61.60
2017-10-15T09:51:05.730Z,61.80
2017-10-15T09:53:40.730Z,61.80
2017-10-15T09:56:15.807Z,62.20
2017-10-15T09:58:51.042Z,62.50
2017-10-15T10:01:26.163Z,62.50
2017-10-15T10:04:01.235Z,62.70
2017-10-15T10:06:35.918Z,63.20
2017-10-15T10:09:10.570Z,62.90
2017-10-15T10:11:45.115Z,62.80
2017-10-15T10:14:19.575Z,62.20
2017-10-15T10:16:54.241Z,61.60
2017-10-15T10:19:29.386Z,62.10
2017-10-15T10:22:04.523Z,61.80
2017-10-15T10:24:39.731Z,61.30
2017-10-15T10:27:14.858Z,61.20
2017-10-15T10:29:49.826Z,61.10
2017-10-15T10:32:25.055Z,61.30
2017-10-15T10:35:00.797Z,61.50
2017-10-15T10:40:17.315Z,61.70
2017-10-15T10:42:52.306Z,61.20
2017-10-15T10:45:27.463Z,61.20
2017-10-15T10:48:02.576Z,60.90
2017-10-15T10:50:37.683Z,61.20
2017-10-15T10:53:12.152Z,61.20
2017-10-15T10:55:47.335Z,61.50
2017-10-15T10:58:21.982Z,61.10
2017-10-15T11:00:56.502Z,61.10
2017-10-15T11:03:31.546Z,60.90
2017-10-15T11:06:06.686Z,60.50
2017-10-15T11:08:41.701Z,60.40
2017-10-15T11:11:16.701Z,60.20
2017-10-15T11:13:51.691Z,60.60
2017-10-15T11:16:26.714Z,61.10
2017-10-15T11:19:01.359Z,61.20
2017-10-15T11:21:35.931Z,61.50
2017-10-15T11:24:10.574Z,61.10
2017-10-15T11:26:45.702Z,60.20
2017-10-15T11:29:20.754Z,59.40
2017-10-15T11:31:56.600Z,60.10
2017-10-15T11:34:31.625Z,60.00
2017-10-15T11:37:06.798Z,60.40
2017-10-15T11:39:41.841Z,60.60
2017-10-15T11:42:17.015Z,61.20
2017-10-15T11:44:52.194Z,61.50
2017-10-15T11:47:28.033Z,60.40
2017-10-15T11:50:04.743Z,60.30
2017-10-15T11:52:39.821Z,59.60
2017-10-15T11:55:14.938Z,59.30
2017-10-15T11:57:50.026Z,59.00
2017-10-15T12:00:25.055Z,59.00
2017-10-15T12:02:59.883Z,59.40
2017-10-15T12:05:35.831Z,59.70
2017-10-15T12:08:10.846Z,59.60
2017-10-15T12:10:45.865Z,59.20
2017-10-15T12:13:20.946Z,58.90
2017-10-15T12:15:56.054Z,58.10
2017-10-15T12:18:31.533Z,57.20
2017-10-15T12:21:06.711Z,56.80
2017-10-15T12:23:41.727Z,56.60
2017-10-15T12:26:16.922Z,56.60
2017-10-15T12:28:51.402Z,55.80
2017-10-15T12:31:26.472Z,54.90
2017-10-15T12:34:00.974Z,54.90
2017-10-15T12:36:35.334Z,54.00
2017-10-15T12:39:09.914Z,53.30
2017-10-15T12:41:44.535Z,52.20
2017-10-15T12:44:19.215Z,50.90
2017-10-15T12:46:53.846Z,49.80
2017-10-15T12:49:28.495Z,48.20
2017-10-15T12:52:03.086Z,46.00
2017-10-15T12:54:37.681Z,43.70
2017-10-15T12:57:12.242Z,41.30
2017-10-15T12:59:46.761Z,39.20
2017-10-15T13:02:21.264Z,37.50
2017-10-15T13:04:55.889Z,36.20
2017-10-15T13:07:30.550Z,35.30
2017-10-15T13:10:09.062Z,34.40
2017-10-15T13:12:43.628Z,33.60
2017-10-15T13:15:18.185Z,33.00
2017-10-15T13:17:52.702Z,32.50
2017-10-15T13:20:27.282Z,32.00
2017-10-15T13:23:01.549Z,31.80
2017-10-15T13:25:35.993Z,31.60
2017-10-15T13:28:11.157Z,30.90
2017-10-15T13:30:45.410Z,30.70
2017-10-15T13:33:20.062Z,30.40
2017-10-15T13:35:54.637Z,30.00
2017-10-15T13:38:30.071Z,29.20
2017-10-15T13:41:05.499Z,29.10
2017-10-15T13:43:39.962Z,28.90
2017-10-15T13:46:14.501Z,29.20
2017-10-15T13:48:49.082Z,29.10
2017-10-15T13:51:23.638Z,29.10
2017-10-15T13:53:58.116Z,29.10
2017-10-15T13:56:32.674Z,29.10
2017-10-15T13:59:07.135Z,29.00
2017-10-15T14:01:41.751Z,28.90
2017-10-15T14:04:16.255Z,28.90
2017-10-15T14:06:50.839Z,28.80
2017-10-15T14:09:25.350Z,28.60
2017-10-15T14:11:59.943Z,28.30
2017-10-15T14:14:34.591Z,27.90
2017-10-15T14:17:09.203Z,27.70
2017-10-15T14:19:43.713Z,27.50
2017-10-15T14:22:18.052Z,27.40
2017-10-15T14:24:52.509Z,27.40
2017-10-15T14:27:26.943Z,27.30
2017-10-15T14:30:01.386Z,27.10
2017-10-15T14:32:35.751Z,26.90
2017-10-15T14:35:10.286Z,26.80
2017-10-15T14:37:44.706Z,26.80
2017-10-15T14:40:19.278Z,26.60
2017-10-15T14:42:54.496Z,26.10
2017-10-15T14:45:29.075Z,26.00
2017-10-15T14:48:03.470Z,25.90
2017-10-15T14:50:37.994Z,25.70
2017-10-15T14:53:12.458Z,25.70
2017-10-15T14:55:47.103Z,25.50
2017-10-15T14:58:21.751Z,25.40
2017-10-15T15:00:56.266Z,25.30
2017-10-15T15:03:31.496Z,25.10
2017-10-15T15:06:05.922Z,25.00
2017-10-15T15:08:40.371Z,24.90
2017-10-15T15:11:14.679Z,24.80
2017-10-15T15:13:49.398Z,24.60
2017-10-15T15:16:23.892Z,24.50
2017-10-15T15:18:58.494Z,24.30
2017-10-15T15:21:33.118Z,24.30
2017-10-15T15:24:07.558Z,24.20
2017-10-15T15:26:41.787Z,24.10
2017-10-15T15:29:16.466Z,23.90
2017-10-15T15:31:50.999Z,23.80
2017-10-15T15:34:26.383Z,23.60
2017-10-15T15:37:00.891Z,23.50
2017-10-15T15:39:37.898Z,23.40
2017-10-15T15:42:12.407Z,23.30
2017-10-15T15:44:46.903Z,23.30
2017-10-15T15:47:21.158Z,23.20
2017-10-15T15:49:55.526Z,23.20
2017-10-15T15:52:29.786Z,23.10
2017-10-15T15:55:06.395Z,23.00
2017-10-15T15:57:40.819Z,23.00
2017-10-15T16:00:15.402Z,22.90
2017-10-15T16:02:49.863Z,22.80
2017-10-15T16:05:24.403Z,22.80
2017-10-15T16:07:58.978Z,22.70
2017-10-15T16:10:33.551Z,22.60
2017-10-15T16:13:08.101Z,22.50
2017-10-15T16:15:42.680Z,22.40
2017-10-15T16:18:17.307Z,22.40
2017-10-15T16:20:51.810Z,22.30
2017-10-15T16:23:26.250Z,22.20
2017-10-15T16:26:00.754Z,22.20
2017-10-15T16:28:35.302Z,22.10
2017-10-15T16:31:09.934Z,22.00
2017-10-15T16:33:44.491Z,22.00
2017-10-15T16:36:19.092Z,21.80
2017-10-15T16:38:53.738Z,21.80
2017-10-15T16:41:28.280Z,21.60
2017-10-15T16:44:02.779Z,21.60
2017-10-15T16:46:37.343Z,21.50
2017-10-15T16:49:11.873Z,21.50
2017-10-15T16:51:46.406Z,21.40
2017-10-15T16:54:20.839Z,21.30
2017-10-15T16:56:55.523Z,21.30
2017-10-15T16:59:29.924Z,21.20
2017-10-15T17:02:04.303Z,21.10
2017-10-15T17:04:38.813Z,21.10
2017-10-15T17:07:13.954Z,21.00
2017-10-15T17:09:49.119Z,20.90
2017-10-15T17:12:23.394Z,20.80
2017-10-15T17:14:57.862Z,20.80
2017-10-15T17:17:32.167Z,20.80
2017-10-15T17:20:13.107Z,20.80
2017-10-15T17:22:47.579Z,20.70
2017-10-15T17:25:22.093Z,20.70
2017-10-15T17:27:56.770Z,20.60
2017-10-15T17:30:31.258Z,20.60
2017-10-15T17:33:06.455Z,20.50
2017-10-15T17:35:41.085Z,20.50
2017-10-15T17:38:15.581Z,20.50
2017-10-15T17:40:50.087Z,20.40
2017-10-15T17:43:24.587Z,20.30
2017-10-15T17:45:59.182Z,20.30
2017-10-15T17:48:33.694Z,20.20
2017-10-15T17:51:08.325Z,20.10
2017-10-15T17:53:42.938Z,20.00
2017-10-15T17:56:17.746Z,19.90
2017-10-15T17:58:52.182Z,19.90
2017-10-15T18:01:26.459Z,19.80
2017-10-15T18:04:01.954Z,19.60
2017-10-15T18:06:36.451Z,19.60
2017-10-15T18:09:11.003Z,19.60
2017-10-15T18:11:45.636Z,19.50
2017-10-15T18:14:20.524Z,19.40
2017-10-15T18:16:55.364Z,19.40
2017-10-15T18:19:29.966Z,19.30
2017-10-15T18:22:04.518Z,19.20
2017-10-15T18:24:39.042Z,19.20
2017-10-15T18:27:13.423Z,19.10
2017-10-15T18:29:47.944Z,19.10
2017-10-15T18:32:22.466Z,19.00
2017-10-15T18:34:56.940Z,18.90
2017-10-15T18:37:31.566Z,18.90
2017-10-15T18:40:12.166Z,18.90
2017-10-15T18:42:46.743Z,18.80
2017-10-15T18:45:22.014Z,18.70
2017-10-15T18:47:56.462Z,18.60
2017-10-15T18:50:30.981Z,18.60
2017-10-15T18:53:05.582Z,18.60
2017-10-15T18:55:40.171Z,18.50
2017-10-15T18:58:14.616Z,18.50
2017-10-15T19:00:49.206Z,18.50
2017-10-15T19:03:23.299Z,18.40
2017-10-15T19:05:57.958Z,18.30
2017-10-15T19:08:32.601Z,18.30
2017-10-15T19:11:06.957Z,18.30
2017-10-15T19:13:41.666Z,18.20
2017-10-15T19:16:16.205Z,18.20
2017-10-15T19:18:50.508Z,18.20
2017-10-15T19:21:24.806Z,18.10
2017-10-15T19:23:59.431Z,18.10
2017-10-15T19:26:34.071Z,18.00
2017-10-15T19:29:08.641Z,18.00
2017-10-15T19:31:43.321Z,17.90
2017-10-15T19:34:17.986Z,17.90
2017-10-15T19:36:52.354Z,17.90
2017-10-15T19:39:27.133Z,17.80
2017-10-15T19:42:01.564Z,17.80
2017-10-15T19:44:35.981Z,17.70
2017-10-15T19:47:10.534Z,17.60
2017-10-15T19:49:45.038Z,17.60
2017-10-15T19:52:19.678Z,17.50
2017-10-15T19:54:55.110Z,17.40
2017-10-15T19:57:29.842Z,17.30
2017-10-15T20:00:13.098Z,17.40
2017-10-15T20:02:47.508Z,17.40
2017-10-15T20:05:21.821Z,17.30
2017-10-15T20:07:56.371Z,17.30
2017-10-15T20:10:30.939Z,17.20
2017-10-15T20:13:05.506Z,17.10
2017-10-15T20:15:40.147Z,17.00
2017-10-15T20:18:14.551Z,17.00
2017-10-15T20:20:49.008Z,17.00
2017-10-15T20:23:23.482Z,17.00
2017-10-15T20:25:57.822Z,17.00
2017-10-15T20:28:32.510Z,16.90
2017-10-15T20:31:07.102Z,16.90
2017-10-15T20:33:41.573Z,16.80
2017-10-15T20:36:16.145Z,16.80
2017-10-15T20:38:50.798Z,16.70
2017-10-15T20:41:25.358Z,16.70
2017-10-15T20:43:59.872Z,16.70
2017-10-15T20:46:34.630Z,16.70
2017-10-15T20:49:09.887Z,16.60
2017-10-15T20:51:44.675Z,16.50
2017-10-15T20:54:19.262Z,16.60
2017-10-15T20:56:53.841Z,16.60
2017-10-15T20:59:28.654Z,16.50
2017-10-15T21:02:03.147Z,16.60
2017-10-15T21:04:37.762Z,16.60
2017-10-15T21:07:12.281Z,16.50
2017-10-15T21:09:46.947Z,16.40
2017-10-15T21:12:21.543Z,16.40
2017-10-15T21:14:56.153Z,16.40
2017-10-15T21:17:30.755Z,16.40
2017-10-15T21:20:06.812Z,16.30
2017-10-15T21:22:42.091Z,16.30
2017-10-15T21:25:16.554Z,16.30
2017-10-15T21:27:51.613Z,16.30
2017-10-15T21:30:26.243Z,16.30
2017-10-15T21:33:00.787Z,16.30
2017-10-15T21:35:35.397Z,16.20
2017-10-15T21:38:09.870Z,16.20
2017-10-15T21:40:44.406Z,16.20
2017-10-15T21:43:18.840Z,16.20
2017-10-15T21:45:53.147Z,16.10
2017-10-15T21:48:27.902Z,16.10
2017-10-15T21:51:02.514Z,16.00
2017-10-15T21:53:37.090Z,16.00
2017-10-15T21:56:11.667Z,16.00
2017-10-15T21:58:46.143Z,15.90
2017-10-15T22:01:20.743Z,15.90
2017-10-15T22:03:55.190Z,15.90
2017-10-15T22:06:29.730Z,15.80
2017-10-15T22:09:03.488Z,15.80
2017-10-15T22:11:38.167Z,15.80
2017-10-15T22:14:12.838Z,15.80
2017-10-15T22:16:47.568Z,15.70
2017-10-15T22:19:22.342Z,15.60
2017-10-15T22:22:02.635Z,15.60
2017-10-15T22:24:37.082Z,15.60
2017-10-15T22:27:11.647Z,15.50
2017-10-15T22:29:46.118Z,15.50
2017-10-15T22:32:20.702Z,15.50
2017-10-15T22:34:55.206Z,15.50
2017-10-15T22:37:29.814Z,15.40
2017-10-15T22:40:05.064Z,15.40
2017-10-15T22:42:40.439Z,15.40
2017-10-15T22:45:15.011Z,15.40
2017-10-15T22:47:49.473Z,15.40
2017-10-15T22:50:24.059Z,15.40
2017-10-15T22:52:58.486Z,15.40
2017-10-15T22:55:32.813Z,15.40
2017-10-15T22:58:07.399Z,15.40
2017-10-15T23:00:42.007Z,15.40
2017-10-15T23:03:16.680Z,15.40
2017-10-15T23:05:51.223Z,15.30
2017-10-15T23:08:25.659Z,15.30
2017-10-15T23:11:00.167Z,15.30
2017-10-15T23:13:34.874Z,15.20
2017-10-15T23:16:09.502Z,15.20
2017-10-15T23:18:44.177Z,15.20
2017-10-15T23:21:18.665Z,15.10
2017-10-15T23:23:53.310Z,15.10
2017-10-15T23:26:27.903Z,15.10
2017-10-15T23:29:02.424Z,15.10
2017-10-15T23:31:36.931Z,15.10
2017-10-15T23:34:11.459Z,15.00
2017-10-15T23:36:46.057Z,15.00
2017-10-15T23:39:20.566Z,14.90
2017-10-15T23:41:55.210Z,14.80
2017-10-15T23:44:29.772Z,14.70
2017-10-15T23:47:04.303Z,14.70
2017-10-15T23:49:38.835Z,14.60
2017-10-15T23:52:13.434Z,14.50
2017-10-15T23:54:47.903Z,14.60
2017-10-15T23:57:22.314Z,14.50
2017-10-15T23:59:56.891Z,14.50
